Time;durP1;ratioP1;P1;durP2;ratioP2;P2;SDS_P1;SDS_P2;PMS_P1;PMS_P2;Temp;Humidity;BMP_temperature;BMP_pressure;BME280_temperature;BME280_humidity;BME280_pressure;Samples;Min_cycle;Max_cycle;Signal;HPM_P1;HPM_P2
2022/01/10 00:00:59;;;;;;;8.40;6.60;;;;;;;2.30;100.00;97477.38;5056632;28;20209;-72
2022/01/10 00:03:26;;;;;;;12.63;7.53;;;;;;;2.28;100.00;97476.72;5056558;28;20209;-72
2022/01/10 00:05:52;;;;;;;13.50;7.70;;;;;;;2.28;100.00;97480.16;5056496;28;20201;-71
2022/01/10 00:08:19;;;;;;;8.73;6.47;;;;;;;2.28;100.00;97479.34;5056526;28;20197;-71
2022/01/10 00:10:45;;;;;;;11.37;7.30;;;;;;;2.25;100.00;97487.59;5056261;28;20490;-71
2022/01/10 00:13:12;;;;;;;8.00;6.90;;;;;;;2.24;100.00;97489.38;5056515;28;20220;-72
2022/01/10 00:15:39;;;;;;;11.87;7.27;;;;;;;2.24;100.00;97492.00;5056719;28;20197;-73
2022/01/10 00:18:06;;;;;;;11.13;7.30;;;;;;;2.30;100.00;97493.91;5056591;28;20221;-72
2022/01/10 00:20:32;;;;;;;12.80;6.23;;;;;;;2.20;100.00;97490.72;5056821;28;20189;-73
2022/01/10 00:22:59;;;;;;;10.00;6.77;;;;;;;2.19;100.00;97493.53;5056497;28;20225;-73
2022/01/10 00:25:26;;;;;;;10.17;6.93;;;;;;;2.22;100.00;97493.19;5056488;28;20202;-72
2022/01/10 00:27:54;;;;;;;9.93;7.23;;;;;;;2.22;100.00;97493.97;5056380;28;20261;-72
2022/01/10 00:30:22;;;;;;;8.37;6.80;;;;;;;2.24;100.00;97494.63;5056472;28;20196;-73
2022/01/10 00:32:48;;;;;;;9.00;6.67;;;;;;;2.25;100.00;97498.06;5056413;28;20204;-73
2022/01/10 00:35:16;;;;;;;11.97;6.80;;;;;;;2.24;100.00;97501.66;5056158;28;20599;-73
2022/01/10 00:37:43;;;;;;;9.87;6.73;;;;;;;2.23;100.00;97506.13;5056343;28;20225;-72
2022/01/10 00:40:12;;;;;;;10.87;6.83;;;;;;;2.22;100.00;97509.72;5057233;28;20201;-73
2022/01/10 00:42:40;;;;;;;11.80;7.37;;;;;;;2.23;100.00;97505.28;5060069;28;20237;-71
2022/01/10 00:45:17;;;;;;;11.47;7.30;;;;;;;2.24;100.00;97509.53;5060152;28;20478;-72
2022/01/10 00:47:46;;;;;;;9.00;6.90;;;;;;;2.26;100.00;97510.97;5060395;28;20260;-71
2022/01/10 00:50:13;;;;;;;9.67;6.47;;;;;;;2.19;100.00;97511.88;5060411;28;20563;-71
2022/01/10 00:52:39;;;;;;;10.40;6.53;;;;;;;2.18;100.00;97512.88;5059946;28;20208;-73
2022/01/10 00:55:07;;;;;;;9.97;6.67;;;;;;;2.19;100.00;97519.75;5060342;28;20212;-72
2022/01/10 00:57:33;;;;;;;11.83;7.20;;;;;;;2.21;100.00;97523.03;5059881;28;20648;-72
2022/01/10 01:00:00;;;;;;;9.20;6.57;;;;;;;2.19;100.00;97528.44;5060145;28;20212;-67
2022/01/10 01:02:31;;;;;;;9.87;6.30;;;;;;;2.25;100.00;97534.78;5059928;28;20292;-67
2022/01/10 01:05:00;;;;;;;10.73;6.40;;;;;;;2.28;100.00;97539.66;5059962;28;20189;-67
2022/01/10 01:07:27;;;;;;;8.40;5.70;;;;;;;2.24;100.00;97536.59;5059554;28;20636;-71
2022/01/10 01:10:05;;;;;;;10.00;6.37;;;;;;;2.21;100.00;97536.94;5059876;28;20201;-70
2022/01/10 01:12:41;;;;;;;11.17;6.27;;;;;;;2.24;100.00;97552.31;5059758;28;20201;-71
2022/01/10 01:15:18;;;;;;;11.10;5.37;;;;;;;2.21;100.00;97551.88;5059614;28;20182;-71
2022/01/10 01:17:58;;;;;;;8.10;5.00;;;;;;;2.11;100.00;97553.91;5059372;28;20229;-71
2022/01/10 01:20:44;;;;;;;9.50;4.93;;;;;;;2.14;100.00;97562.25;5059635;28;20201;-70
2022/01/10 01:26:02;;;;;;;7.97;4.80;;;;;;;2.10;100.00;97565.41;5059322;28;20181;-67
2022/01/10 01:28:30;;;;;;;6.47;4.63;;;;;;;2.17;100.00;97575.00;5059197;28;20203;-72
2022/01/10 01:30:57;;;;;;;12.17;6.07;;;;;;;2.14;100.00;97585.03;5059511;28;20206;-73
2022/01/10 01:33:24;;;;;;;8.40;5.10;;;;;;;2.23;100.00;97573.47;5059431;28;20194;-71
2022/01/10 01:35:52;;;;;;;8.20;5.67;;;;;;;2.26;100.00;97586.25;5059013;28;20232;-73
2022/01/10 01:38:19;;;;;;;8.77;5.97;;;;;;;2.24;100.00;97596.06;5059239;28;20689;-73
2022/01/10 01:40:52;;;;;;;7.73;5.43;;;;;;;2.25;100.00;97587.25;5058872;28;20201;-73
2022/01/10 01:43:18;;;;;;;10.80;5.50;;;;;;;2.21;100.00;97593.81;5059238;28;20255;-72
2022/01/10 01:45:48;;;;;;;7.63;4.47;;;;;;;2.18;100.00;97597.63;5058900;28;20197;-72
2022/01/10 01:48:16;;;;;;;7.07;4.87;;;;;;;2.23;100.00;97595.28;5058838;28;20266;-73
2022/01/10 01:50:43;;;;;;;8.10;4.70;;;;;;;2.35;100.00;97603.53;5058259;28;20621;-73
2022/01/10 01:53:11;;;;;;;6.70;3.53;;;;;;;2.25;100.00;97603.78;5058740;28;20220;-72
2022/01/10 01:55:38;;;;;;;5.37;3.80;;;;;;;2.26;100.00;97609.84;5059054;28;20252;-70
2022/01/10 01:58:05;;;;;;;7.47;4.10;;;;;;;2.28;100.00;97608.66;5058945;28;20311;-70
2022/01/10 02:00:31;;;;;;;6.03;3.07;;;;;;;2.21;100.00;97612.19;5058640;28;20255;-72
2022/01/10 02:02:58;;;;;;;6.77;3.30;;;;;;;2.26;100.00;97615.09;5058833;28;20547;-68
2022/01/10 02:05:24;;;;;;;6.03;3.27;;;;;;;2.26;100.00;97620.34;5058897;28;20208;-67
2022/01/10 02:07:51;;;;;;;3.60;2.70;;;;;;;2.25;100.00;97618.72;5058700;28;20503;-67
2022/01/10 02:10:18;;;;;;;4.70;2.93;;;;;;;2.33;100.00;97621.22;5058487;28;20251;-68
2022/01/10 02:12:45;;;;;;;6.57;2.90;;;;;;;2.32;100.00;97622.22;5058361;28;20209;-67
2022/01/10 02:15:34;;;;;;;7.50;3.43;;;;;;;2.28;100.00;97626.19;5058670;28;20205;-67
2022/01/10 02:18:00;;;;;;;7.27;3.43;;;;;;;2.27;100.00;97625.41;5058278;28;20227;-67
2022/01/10 02:20:32;;;;;;;5.20;3.37;;;;;;;2.28;100.00;97631.44;5058276;28;20631;-67
2022/01/10 02:22:58;;;;;;;5.23;3.60;;;;;;;2.28;100.00;97629.66;5058157;28;20627;-67
2022/01/10 02:25:25;;;;;;;5.53;2.97;;;;;;;2.22;100.00;97640.03;5058498;28;20193;-67
2022/01/10 02:27:52;;;;;;;7.00;3.43;;;;;;;2.22;100.00;97642.66;5058066;28;20707;-67
2022/01/10 02:30:19;;;;;;;6.50;3.13;;;;;;;2.24;100.00;97638.03;5058330;28;20486;-71
2022/01/10 02:32:46;;;;;;;8.80;3.53;;;;;;;2.28;100.00;97642.75;5058038;28;20248;-71
2022/01/10 02:35:27;;;;;;;5.00;3.30;;;;;;;2.30;100.00;97645.22;5058018;28;20200;-71
2022/01/10 02:37:55;;;;;;;7.93;3.93;;;;;;;2.36;100.00;97647.94;5057895;28;20236;-71
2022/01/10 02:40:25;;;;;;;6.80;3.80;;;;;;;2.29;100.00;97646.19;5057869;28;20240;-67
2022/01/10 02:42:52;;;;;;;6.13;4.03;;;;;;;2.10;100.00;97651.91;5057797;28;20545;-67
2022/01/10 02:45:19;;;;;;;5.43;4.53;;;;;;;2.25;100.00;97656.22;5058141;28;20229;-68
2022/01/10 02:47:47;;;;;;;6.23;4.63;;;;;;;2.24;100.00;97659.84;5057990;28;20233;-69
2022/01/10 02:50:14;;;;;;;6.77;3.73;;;;;;;2.27;100.00;97670.00;5057714;28;20788;-69
2022/01/10 02:52:41;;;;;;;4.73;3.60;;;;;;;2.30;100.00;97669.63;5057997;28;20204;-69
2022/01/10 02:55:09;;;;;;;5.80;3.80;;;;;;;2.35;100.00;97671.72;5057620;28;20623;-69
2022/01/10 02:57:36;;;;;;;6.10;3.30;;;;;;;2.32;100.00;97675.50;5057780;28;20227;-71
2022/01/10 03:00:13;;;;;;;5.53;3.40;;;;;;;2.33;100.00;97684.19;5057898;28;20490;-71
2022/01/10 03:02:41;;;;;;;8.97;3.50;;;;;;;2.29;100.00;97683.72;5056625;28;20491;-71
2022/01/10 03:05:08;;;;;;;6.20;3.27;;;;;;;2.35;100.00;97687.47;5057638;28;20267;-71
2022/01/10 03:07:35;;;;;;;4.50;3.03;;;;;;;2.31;100.00;97691.41;5057646;28;20221;-71
2022/01/10 03:10:02;;;;;;;9.37;3.83;;;;;;;2.29;100.00;97696.84;5057325;28;20631;-69
2022/01/10 03:12:31;;;;;;;10.20;4.10;;;;;;;2.31;100.00;97691.41;5057568;28;20292;-69
2022/01/10 03:14:59;;;;;;;6.17;4.10;;;;;;;2.28;100.00;97704.88;5057499;28;20197;-69
2022/01/10 03:17:26;;;;;;;7.43;3.53;;;;;;;2.30;100.00;97706.34;5057413;28;20279;-69
2022/01/10 03:19:53;;;;;;;7.13;2.70;;;;;;;2.38;100.00;97715.94;5057395;28;20198;-69
2022/01/10 03:22:20;;;;;;;4.20;3.27;;;;;;;2.39;100.00;97720.22;5057436;28;20204;-69
2022/01/10 03:24:46;;;;;;;5.87;3.60;;;;;;;2.38;100.00;97724.63;5056926;28;20574;-69
2022/01/10 03:27:13;;;;;;;5.77;3.23;;;;;;;2.46;100.00;97729.00;5057287;28;20217;-69
2022/01/10 03:29:39;;;;;;;8.80;3.90;;;;;;;2.45;100.00;97732.63;5057250;28;20208;-69
2022/01/10 03:32:07;;;;;;;8.40;4.43;;;;;;;2.46;100.00;97740.31;5056893;28;20205;-69
2022/01/10 03:34:34;;;;;;;7.10;3.47;;;;;;;2.53;100.00;97741.22;5057163;28;20202;-69
2022/01/10 03:37:00;;;;;;;6.00;3.03;;;;;;;2.48;100.00;97742.78;5057033;28;20236;-69
2022/01/10 03:39:27;;;;;;;4.13;3.00;;;;;;;2.48;100.00;97740.94;5056966;28;20201;-69
2022/01/10 03:41:53;;;;;;;6.27;3.20;;;;;;;2.42;100.00;97746.06;5056492;28;20608;-70
2022/01/10 03:44:19;;;;;;;8.73;3.80;;;;;;;2.47;100.00;97744.56;5056804;28;20225;-73
2022/01/10 03:46:47;;;;;;;6.40;3.47;;;;;;;2.50;100.00;97743.41;5056742;28;20546;-73
2022/01/10 03:49:14;;;;;;;8.30;3.70;;;;;;;2.51;100.00;97739.78;5056601;28;20316;-68
2022/01/10 03:51:40;;;;;;;6.93;4.07;;;;;;;2.48;100.00;97745.41;5056850;28;20213;-67
2022/01/10 03:54:06;;;;;;;5.30;3.93;;;;;;;2.46;100.00;97752.59;5056550;28;20186;-67
2022/01/10 03:56:33;;;;;;;9.13;4.13;;;;;;;2.49;100.00;97752.28;5056353;28;20227;-67
2022/01/10 03:59:00;;;;;;;7.73;3.70;;;;;;;2.52;100.00;97763.22;5056806;28;20224;-70
2022/01/10 04:01:27;;;;;;;7.03;4.20;;;;;;;2.49;100.00;97760.13;5056694;28;20263;-71
2022/01/10 04:03:54;;;;;;;7.47;4.53;;;;;;;2.49;100.00;97760.94;5056491;28;20218;-71
2022/01/10 04:06:20;;;;;;;9.30;4.47;;;;;;;2.48;100.00;97766.38;5056255;28;20312;-71
2022/01/10 04:08:46;;;;;;;8.83;4.70;;;;;;;2.44;100.00;97765.91;5056493;28;20292;-70
2022/01/10 04:11:13;;;;;;;6.40;4.47;;;;;;;2.42;100.00;97769.69;5056142;28;20211;-70
2022/01/10 04:13:40;;;;;;;6.20;4.97;;;;;;;2.47;100.00;97769.97;5056322;28;20204;-70
2022/01/10 04:16:06;;;;;;;6.40;4.00;;;;;;;2.56;100.00;97769.75;5056286;28;20229;-70
2022/01/10 04:18:32;;;;;;;9.67;4.63;;;;;;;2.55;100.00;97770.75;5056121;28;20662;-70
2022/01/10 04:20:59;;;;;;;10.60;5.10;;;;;;;2.52;100.00;97781.59;5056344;28;20212;-70
2022/01/10 04:23:26;;;;;;;6.63;3.90;;;;;;;2.43;100.00;97784.47;5056047;28;20280;-70
2022/01/10 04:25:52;;;;;;;10.27;4.60;;;;;;;2.53;100.00;97787.66;5055900;28;20505;-70
2022/01/10 04:28:19;;;;;;;8.93;4.23;;;;;;;2.64;100.00;97784.63;5055905;28;20201;-70
2022/01/10 04:30:45;;;;;;;10.03;3.97;;;;;;;2.62;100.00;97792.66;5055893;28;20209;-70
2022/01/10 04:33:17;;;;;;;8.47;4.03;;;;;;;2.58;100.00;97796.63;5056035;28;20212;-70
2022/01/10 04:35:43;;;;;;;7.93;3.80;;;;;;;2.58;100.00;97801.88;5055586;28;20232;-70
2022/01/10 04:38:10;;;;;;;8.93;4.40;;;;;;;2.59;100.00;97807.94;5055977;28;20217;-70
2022/01/10 04:40:37;;;;;;;8.00;4.73;;;;;;;2.62;100.00;97807.59;5055799;28;20483;-70
2022/01/10 04:43:03;;;;;;;10.13;4.97;;;;;;;2.66;100.00;97808.88;5055433;28;20236;-71
2022/01/10 04:45:30;;;;;;;6.97;4.83;;;;;;;2.64;100.00;97814.31;5055800;28;20232;-71
2022/01/10 04:47:56;;;;;;;12.13;4.57;;;;;;;2.63;100.00;97812.69;5055555;28;20217;-71
2022/01/10 04:50:44;;;;;;;9.70;5.10;;;;;;;2.61;100.00;97817.28;5056486;28;20515;-73
2022/01/10 04:53:11;;;;;;;8.17;4.77;;;;;;;2.71;100.00;97830.97;5055951;28;20201;-67
2022/01/10 04:55:37;;;;;;;8.97;5.87;;;;;;;2.64;100.00;97827.44;5055661;28;20632;-67
2022/01/10 04:58:04;;;;;;;11.17;5.50;;;;;;;2.58;100.00;97835.97;5055850;28;20217;-68
2022/01/10 05:00:30;;;;;;;7.63;5.27;;;;;;;2.59;100.00;97837.63;5055904;28;20206;-67
2022/01/10 05:02:57;;;;;;;11.17;6.43;;;;;;;2.58;100.00;97843.06;5055728;28;20198;-67
2022/01/10 05:05:23;;;;;;;8.33;6.00;;;;;;;2.58;100.00;97850.94;5055628;28;20222;-68
2022/01/10 05:07:49;;;;;;;8.87;5.80;;;;;;;2.68;100.00;97848.88;5055417;28;20236;-67
2022/01/10 05:10:17;;;;;;;10.70;6.57;;;;;;;2.69;100.00;97853.13;5055834;28;20212;-70
2022/01/10 05:12:43;;;;;;;9.40;6.90;;;;;;;2.67;100.00;97857.75;5055863;28;20335;-71
2022/01/10 05:15:10;;;;;;;11.20;6.90;;;;;;;2.68;100.00;97856.75;5055579;28;20197;-71
2022/01/10 05:17:36;;;;;;;10.20;7.33;;;;;;;2.71;100.00;97862.47;5055314;28;20654;-71
2022/01/10 05:20:04;;;;;;;10.40;7.63;;;;;;;2.61;100.00;97864.50;5055608;28;20208;-71
2022/01/10 05:22:31;;;;;;;11.90;7.40;;;;;;;2.61;100.00;97874.16;5055626;28;20194;-71
2022/01/10 05:24:58;;;;;;;11.23;7.67;;;;;;;2.65;100.00;97871.03;5055494;28;20205;-71
2022/01/10 05:27:24;;;;;;;15.37;8.43;;;;;;;2.62;100.00;97879.25;5058183;28;20229;-71
2022/01/10 05:29:51;;;;;;;13.07;8.33;;;;;;;2.62;100.00;97883.69;5058980;28;20202;-71
2022/01/10 05:32:17;;;;;;;14.50;8.77;;;;;;;2.65;100.00;97885.97;5059101;28;20204;-71
2022/01/10 05:34:43;;;;;;;15.00;9.80;;;;;;;2.57;100.00;97886.84;5058965;28;20190;-71
2022/01/10 05:37:10;;;;;;;14.77;8.83;;;;;;;2.66;100.00;97895.50;5058658;28;20664;-71
2022/01/10 05:39:36;;;;;;;16.30;9.27;;;;;;;2.65;100.00;97904.34;5058780;28;20227;-71
2022/01/10 05:42:03;;;;;;;14.63;9.57;;;;;;;2.72;100.00;97900.03;5058616;28;20220;-70
2022/01/10 05:44:29;;;;;;;17.83;9.90;;;;;;;2.74;100.00;97913.78;5058898;28;20221;-71
2022/01/10 05:46:58;;;;;;;17.03;10.43;;;;;;;2.64;100.00;97910.56;5058768;28;20229;-71
2022/01/10 05:49:29;;;;;;;16.27;9.47;;;;;;;2.63;100.00;97906.31;5058706;28;20255;-73
2022/01/10 05:51:56;;;;;;;16.63;8.87;;;;;;;2.87;100.00;97916.66;5058846;28;20193;-73
2022/01/10 05:54:22;;;;;;;13.17;9.23;;;;;;;2.96;98.88;97926.13;5058265;28;20217;-72
2022/01/10 05:56:48;;;;;;;19.97;9.60;;;;;;;2.86;99.58;97921.13;5058538;28;20221;-72
2022/01/10 05:59:15;;;;;;;17.23;8.83;;;;;;;2.92;99.10;97938.78;5058619;28;20194;-67
2022/01/10 06:01:42;;;;;;;13.20;8.50;;;;;;;2.87;99.10;97940.28;5058303;28;20196;-67
2022/01/10 06:04:09;;;;;;;17.90;9.53;;;;;;;2.88;98.85;97941.91;5057839;28;20209;-67
2022/01/10 06:06:36;;;;;;;17.40;10.67;;;;;;;2.78;99.68;97944.78;5058239;28;20221;-67
2022/01/10 06:09:02;;;;;;;17.30;10.33;;;;;;;2.77;99.70;97947.56;5058198;28;20189;-72
2022/01/10 06:11:28;;;;;;;18.30;10.03;;;;;;;2.74;100.00;97950.53;5057669;28;20189;-73
2022/01/10 06:13:55;;;;;;;16.17;10.73;;;;;;;2.74;100.00;97958.41;5057484;28;20502;-69
2022/01/10 06:16:21;;;;;;;16.40;11.10;;;;;;;2.61;100.00;97972.09;5058019;28;20221;-70
2022/01/10 06:18:47;;;;;;;13.33;11.00;;;;;;;2.68;100.00;97977.47;5058107;28;20231;-71
2022/01/10 06:21:14;;;;;;;18.50;11.77;;;;;;;2.82;100.00;97979.38;5058320;28;20208;-70
2022/01/10 06:23:40;;;;;;;16.33;10.63;;;;;;;2.88;99.97;97983.94;5058065;28;20201;-71
2022/01/10 06:26:07;;;;;;;16.90;11.60;;;;;;;2.76;100.00;97990.56;5057753;28;20240;-70
2022/01/10 06:28:33;;;;;;;18.90;12.00;;;;;;;2.86;100.00;97991.16;5057242;28;20540;-70
2022/01/10 06:31:00;;;;;;;17.47;11.17;;;;;;;2.79;100.00;98006.78;5057511;28;20501;-70
2022/01/10 06:33:26;;;;;;;17.57;12.47;;;;;;;2.85;100.00;98013.97;5057593;28;20209;-70
2022/01/10 06:35:52;;;;;;;18.83;12.03;;;;;;;2.77;100.00;98014.03;5057338;28;20194;-70
2022/01/10 06:38:19;;;;;;;20.37;12.73;;;;;;;2.82;100.00;98022.22;5057681;28;20200;-72
2022/01/10 06:40:45;;;;;;;18.30;12.17;;;;;;;2.66;100.00;98029.34;5057436;28;20609;-72
2022/01/10 06:43:11;;;;;;;19.90;12.53;;;;;;;2.78;100.00;98028.78;5056976;28;20217;-72
2022/01/10 06:45:38;;;;;;;18.10;12.10;;;;;;;2.86;99.96;98036.63;5057414;28;20233;-72
2022/01/10 06:48:06;;;;;;;17.23;11.33;;;;;;;2.80;99.60;98028.63;5057121;28;20275;-72
2022/01/10 06:50:32;;;;;;;17.93;12.33;;;;;;;2.81;100.00;98043.38;5057256;28;20212;-72
2022/01/10 06:52:59;;;;;;;19.97;13.20;;;;;;;2.72;100.00;98039.16;5057362;28;20209;-68
2022/01/10 06:55:25;;;;;;;18.63;11.93;;;;;;;2.62;100.00;98051.66;5057339;28;20193;-68
2022/01/10 06:57:51;;;;;;;20.00;12.00;;;;;;;2.67;100.00;98058.00;5056475;28;20225;-67
2022/01/10 07:00:18;;;;;;;21.27;11.43;;;;;;;2.67;100.00;98055.38;5057342;28;20200;-68
2022/01/10 07:02:44;;;;;;;16.97;11.50;;;;;;;2.68;100.00;98062.31;5057279;28;20190;-67
2022/01/10 07:05:11;;;;;;;18.90;11.67;;;;;;;2.74;100.00;98061.59;5057302;28;20225;-67
2022/01/10 07:07:38;;;;;;;18.10;10.73;;;;;;;2.66;100.00;98072.13;5057159;28;20252;-67
2022/01/10 07:10:05;;;;;;;17.47;11.73;;;;;;;2.74;100.00;98076.53;5057122;28;20193;-68
2022/01/10 07:12:31;;;;;;;19.33;11.97;;;;;;;2.66;100.00;98081.81;5057090;28;20209;-67
2022/01/10 07:14:58;;;;;;;15.07;10.37;;;;;;;2.85;100.00;98087.47;5056542;28;20189;-73
2022/01/10 07:17:24;;;;;;;15.20;10.77;;;;;;;2.76;99.88;98098.19;5056958;28;20228;-73
2022/01/10 07:19:50;;;;;;;15.57;10.63;;;;;;;2.75;100.00;98099.19;5057062;28;20197;-72
2022/01/10 07:22:17;;;;;;;17.87;10.40;;;;;;;2.89;98.11;98114.22;5056858;28;20190;-72
2022/01/10 07:24:43;;;;;;;15.10;11.10;;;;;;;2.82;99.42;98119.34;5056958;28;20300;-72
2022/01/10 07:27:10;;;;;;;13.60;8.70;;;;;;;2.88;97.44;98123.91;5056872;28;20228;-72
2022/01/10 07:29:36;;;;;;;11.63;7.97;;;;;;;2.84;96.67;98130.47;5056600;28;20604;-72
2022/01/10 07:32:05;;;;;;;14.00;10.20;;;;;;;2.69;98.54;98132.16;5056470;28;20201;-72
2022/01/10 07:34:31;;;;;;;16.03;10.93;;;;;;;2.64;98.64;98152.03;5056774;28;20243;-72
2022/01/10 07:36:58;;;;;;;11.73;9.67;;;;;;;2.70;98.45;98154.78;5056513;28;20229;-69
2022/01/10 07:39:25;;;;;;;16.20;11.27;;;;;;;2.58;99.22;98157.94;5056610;28;20200;-69
2022/01/10 07:41:51;;;;;;;14.27;10.67;;;;;;;2.64;98.43;98158.09;5056103;28;20213;-69
2022/01/10 07:44:17;;;;;;;17.63;11.90;;;;;;;2.69;97.87;98161.03;5056048;28;20639;-69
2022/01/10 07:46:44;;;;;;;14.10;11.50;;;;;;;2.69;98.00;98168.09;5056597;28;20226;-72
2022/01/10 07:49:10;;;;;;;19.70;12.47;;;;;;;2.69;98.18;98170.72;5055538;28;20190;-72
2022/01/10 07:51:37;;;;;;;20.40;13.80;;;;;;;2.58;98.91;98174.50;5056154;28;20189;-72
2022/01/10 07:54:03;;;;;;;20.50;14.57;;;;;;;2.65;98.51;98177.28;5056172;28;20190;-71
2022/01/10 07:56:29;;;;;;;19.93;13.47;;;;;;;2.68;98.21;98177.78;5056200;28;20667;-67
2022/01/10 07:58:56;;;;;;;25.03;15.60;;;;;;;2.48;98.99;98186.16;5056375;28;20208;-66
2022/01/10 08:01:23;;;;;;;23.03;16.30;;;;;;;2.34;100.00;98200.75;5056059;28;20206;-66
2022/01/10 08:03:51;;;;;;;24.90;16.67;;;;;;;2.62;99.62;98196.78;5056317;28;20512;-67
2022/01/10 08:06:19;;;;;;;22.60;17.43;;;;;;;2.50;100.00;98203.38;5056171;28;20236;-73
2022/01/10 08:08:46;;;;;;;18.73;15.93;;;;;;;2.66;100.00;98205.19;5056195;28;20201;-73
2022/01/10 08:11:12;;;;;;;20.50;15.93;;;;;;;2.77;97.75;98210.06;5056226;28;20288;-67
2022/01/10 08:13:40;;;;;;;30.80;17.77;;;;;;;2.74;97.57;98213.84;5056014;28;20202;-67
2022/01/10 08:16:06;;;;;;;28.47;18.77;;;;;;;2.57;98.50;98219.28;5056083;28;20204;-67
2022/01/10 08:18:34;;;;;;;24.80;16.80;;;;;;;2.85;97.49;98215.31;5056023;28;20209;-66
2022/01/10 08:21:01;;;;;;;21.50;16.23;;;;;;;2.88;97.87;98225.47;5056140;28;20263;-67
2022/01/10 08:23:28;;;;;;;25.93;17.33;;;;;;;2.80;99.12;98228.94;5056014;28;20201;-67
2022/01/10 08:25:54;;;;;;;24.77;16.60;;;;;;;2.94;97.28;98232.69;5055675;28;20214;-68
2022/01/10 08:28:21;;;;;;;22.33;16.10;;;;;;;2.93;97.09;98233.69;5055968;28;20197;-73
2022/01/10 08:30:48;;;;;;;22.83;16.77;;;;;;;2.86;97.27;98237.97;5056052;28;20237;-73
2022/01/10 08:33:14;;;;;;;22.40;16.83;;;;;;;2.91;98.10;98244.34;5055913;28;20197;-72
2022/01/10 08:35:41;;;;;;;22.33;15.57;;;;;;;2.96;96.61;98252.56;5056095;28;20186;-72
2022/01/10 08:38:07;;;;;;;22.03;15.50;;;;;;;2.92;96.61;98253.03;5055555;28;20673;-68
2022/01/10 08:40:34;;;;;;;22.17;16.47;;;;;;;2.87;96.47;98255.34;5055955;28;20201;-68
2022/01/10 08:43:06;;;;;;;24.33;17.83;;;;;;;2.84;98.01;98263.56;5055537;28;20216;-68
2022/01/10 08:45:33;;;;;;;25.23;15.90;;;;;;;2.87;97.07;98266.69;5055637;28;20209;-68
2022/01/10 08:47:59;;;;;;;26.47;17.03;;;;;;;2.88;96.96;98273.56;5055810;28;20232;-67
2022/01/10 08:50:27;;;;;;;19.43;14.97;;;;;;;2.87;97.11;98277.19;5055938;28;20209;-68
2022/01/10 08:52:53;;;;;;;17.70;14.93;;;;;;;2.98;96.37;98278.66;5055841;28;20255;-68
2022/01/10 08:55:20;;;;;;;23.63;17.23;;;;;;;2.61;98.29;98275.69;5055650;28;20197;-68
2022/01/10 08:57:46;;;;;;;21.67;15.47;;;;;;;2.80;98.38;98278.00;5055651;28;20240;-68
2022/01/10 09:00:13;;;;;;;23.33;14.93;;;;;;;2.97;97.43;98287.50;5055512;28;20574;-69
2022/01/10 09:02:40;;;;;;;16.77;14.13;;;;;;;2.91;96.16;98296.03;5059087;28;20201;-69
2022/01/10 09:05:08;;;;;;;21.43;14.70;;;;;;;3.16;96.19;98298.47;5059733;28;20217;-70
2022/01/10 09:07:34;;;;;;;20.63;15.23;;;;;;;2.94;96.29;98298.34;5059258;28;20228;-72
2022/01/10 09:10:00;;;;;;;19.10;14.87;;;;;;;3.06;95.84;98303.09;5059356;28;20201;-72
2022/01/10 09:12:27;;;;;;;24.90;15.23;;;;;;;3.00;96.90;98303.75;5059574;28;20212;-72
2022/01/10 09:14:53;;;;;;;21.97;14.40;;;;;;;3.28;96.19;98306.81;5059492;28;20201;-72
2022/01/10 09:17:19;;;;;;;25.03;13.87;;;;;;;3.40;94.20;98316.00;5059066;28;20221;-69
2022/01/10 09:19:46;;;;;;;21.80;15.20;;;;;;;3.39;95.27;98325.69;5059126;28;20280;-69
2022/01/10 09:22:12;;;;;;;20.07;14.60;;;;;;;3.40;94.38;98316.00;5059142;28;20581;-69
2022/01/10 09:24:39;;;;;;;24.73;15.30;;;;;;;3.29;95.59;98325.06;5059453;28;20205;-72
2022/01/10 09:27:05;;;;;;;22.83;14.77;;;;;;;3.21;95.71;98334.75;5059169;28;20221;-73
2022/01/10 09:29:32;;;;;;;18.33;14.30;;;;;;;3.49;95.23;98334.22;5059272;28;20212;-72
2022/01/10 09:31:58;;;;;;;20.57;13.57;;;;;;;3.39;95.01;98332.78;5058856;28;20204;-67
2022/01/10 09:34:25;;;;;;;20.07;14.17;;;;;;;3.39;95.14;98343.28;5059186;28;20510;-67
2022/01/10 09:36:51;;;;;;;19.93;13.10;;;;;;;3.53;93.49;98345.22;5059032;28;20522;-67
2022/01/10 09:39:19;;;;;;;18.13;13.53;;;;;;;3.26;94.22;98350.84;5058857;28;20596;-67
2022/01/10 09:41:46;;;;;;;16.60;11.43;;;;;;;3.11;94.82;98355.13;5058842;28;20236;-72
2022/01/10 09:44:12;;;;;;;18.87;13.00;;;;;;;3.02;95.09;98359.56;5057961;28;20208;-73
2022/01/10 09:46:39;;;;;;;17.70;13.67;;;;;;;3.31;93.80;98359.88;5058765;28;20237;-66
2022/01/10 09:49:06;;;;;;;17.60;11.67;;;;;;;3.38;91.82;98360.84;5058995;28;20201;-67
2022/01/10 09:51:33;;;;;;;13.10;10.37;;;;;;;3.38;91.69;98373.97;5058702;28;20208;-66
2022/01/10 09:54:01;;;;;;;18.00;12.70;;;;;;;3.36;92.72;98373.34;5058569;28;20267;-66
2022/01/10 09:56:29;;;;;;;16.70;11.20;;;;;;;3.41;92.53;98383.34;5058298;28;20221;-67
2022/01/10 09:58:57;;;;;;;16.83;12.63;;;;;;;3.63;91.80;98385.28;5058800;28;20201;-67
2022/01/10 10:01:26;;;;;;;15.20;11.00;;;;;;;3.46;90.79;98384.50;5058725;28;20221;-67
2022/01/10 10:03:53;;;;;;;18.20;12.07;;;;;;;3.66;91.70;98385.75;5058710;28;20201;-67
2022/01/10 10:06:20;;;;;;;18.37;11.83;;;;;;;3.94;89.75;98388.81;5058618;28;20286;-67
2022/01/10 10:08:47;;;;;;;17.13;12.07;;;;;;;3.81;91.17;98384.09;5058690;28;20291;-71
2022/01/10 10:11:16;;;;;;;19.87;13.03;;;;;;;3.94;90.71;98394.88;5058567;28;20211;-71
2022/01/10 10:13:53;;;;;;;18.00;12.27;;;;;;;3.85;89.10;98403.78;5057991;28;20197;-66
2022/01/10 10:16:21;;;;;;;16.03;12.07;;;;;;;3.75;88.90;98403.16;5058248;28;20271;-66
2022/01/10 10:18:48;;;;;;;23.50;13.27;;;;;;;3.88;89.15;98405.28;5058386;28;20301;-72
2022/01/10 10:21:16;;;;;;;20.03;13.70;;;;;;;3.88;89.12;98405.28;5058411;28;20258;-73
2022/01/10 10:23:46;;;;;;;18.00;12.20;;;;;;;3.95;89.94;98414.13;5058112;28;20201;-72
2022/01/10 10:26:17;;;;;;;17.57;13.93;;;;;;;3.91;90.10;98411.03;5057858;28;20225;-73
2022/01/10 10:28:45;;;;;;;19.80;13.27;;;;;;;3.82;88.93;98416.47;5058277;28;20251;-72
2022/01/10 10:31:13;;;;;;;21.03;13.80;;;;;;;3.84;89.83;98415.28;5058059;28;20202;-66
2022/01/10 10:33:54;;;;;;;18.73;13.87;;;;;;;3.95;88.56;98417.59;5058148;28;20201;-66
2022/01/10 10:36:21;;;;;;;17.97;12.43;;;;;;;3.98;87.37;98416.44;5057963;28;20217;-69
2022/01/10 10:38:48;;;;;;;17.73;12.53;;;;;;;3.97;87.69;98412.16;5058073;28;20201;-69
2022/01/10 10:41:14;;;;;;;16.27;11.03;;;;;;;4.14;86.46;98411.09;5057663;28;20224;-69
2022/01/10 10:43:42;;;;;;;17.33;10.63;;;;;;;3.85;86.65;98424.03;5057799;28;20209;-69
2022/01/10 10:46:16;;;;;;;12.90;9.67;;;;;;;3.63;88.07;98422.09;5057789;28;20221;-67
2022/01/10 10:48:45;;;;;;;15.13;10.33;;;;;;;3.71;88.33;98430.78;5057737;28;20196;-66
2022/01/10 10:51:12;;;;;;;15.60;9.53;;;;;;;4.00;85.82;98432.84;5058153;28;20201;-72
2022/01/10 10:53:40;;;;;;;17.30;9.87;;;;;;;4.11;86.17;98432.50;5057689;28;20208;-67
2022/01/10 10:56:07;;;;;;;14.07;9.83;;;;;;;3.71;86.97;98429.97;5057465;28;20499;-67
2022/01/10 10:58:34;;;;;;;16.10;10.80;;;;;;;3.64;87.86;98435.06;5057284;28;20198;-68
2022/01/10 11:01:03;;;;;;;14.90;11.23;;;;;;;3.85;86.80;98437.16;5057428;28;20205;-72
2022/01/10 11:03:30;;;;;;;16.87;10.80;;;;;;;4.08;86.56;98443.38;5057439;28;20232;-71
2022/01/10 11:05:59;;;;;;;15.57;10.30;;;;;;;4.11;85.99;98440.41;5057249;28;20225;-72
2022/01/10 11:08:31;;;;;;;14.30;10.50;;;;;;;3.94;86.52;98442.22;5057244;28;20275;-71
2022/01/10 11:10:59;;;;;;;15.30;10.17;;;;;;;4.01;86.45;98439.75;5056874;28;20224;-72
2022/01/10 11:13:27;;;;;;;14.90;9.07;;;;;;;3.89;86.52;98444.53;5056666;28;20281;-69
2022/01/10 11:15:55;;;;;;;14.50;8.73;;;;;;;3.84;86.58;98448.69;5056838;28;20249;-68
2022/01/10 11:18:22;;;;;;;15.53;9.33;;;;;;;3.72;86.96;98456.09;5056726;28;20198;-68
2022/01/10 11:20:55;;;;;;;11.30;8.30;;;;;;;4.03;85.35;98456.19;5056946;28;20201;-68
2022/01/10 11:23:23;;;;;;;15.60;9.13;;;;;;;4.25;84.47;98460.75;5056478;28;20193;-72
2022/01/10 11:25:49;;;;;;;17.27;10.00;;;;;;;4.28;85.93;98474.38;5056192;28;20232;-68
2022/01/10 11:28:24;;;;;;;17.50;10.63;;;;;;;4.25;86.34;98468.66;5056973;28;20224;-68
2022/01/10 11:31:02;;;;;;;13.67;9.80;;;;;;;4.48;84.10;98478.25;5056973;28;20193;-72